createdAt,value
2016-11-03T00:03:29.752Z,7.64
2016-11-03T00:07:29.643Z,7.49
2016-11-03T00:11:06.589Z,7.37
2016-11-03T00:14:43.038Z,7.28
2016-11-03T00:18:20.182Z,7.18
2016-11-03T00:21:57.341Z,7.11
2016-11-03T00:25:33.777Z,6.95
2016-11-03T00:29:11.410Z,6.83
2016-11-03T00:32:47.824Z,6.73
2016-11-03T00:36:31.804Z,6.67
2016-11-03T00:40:08.144Z,6.54
2016-11-03T00:43:44.099Z,6.34
2016-11-03T00:47:20.617Z,6.22
2016-11-03T00:50:56.897Z,6.14
2016-11-03T00:54:33.642Z,6.13
2016-11-03T00:58:10.367Z,6.1
2016-11-03T01:01:47.618Z,6.1
2016-11-03T01:05:25.216Z,5.99
2016-11-03T01:09:11.204Z,5.9
2016-11-03T01:13:46.207Z,5.84
2016-11-03T01:17:22.865Z,5.87
2016-11-03T01:25:45.477Z,6.05
2016-11-03T01:33:59.521Z,6.07
2016-11-03T01:37:36.224Z,6.06
2016-11-03T01:41:36.882Z,5.97
2016-11-03T01:45:12.542Z,5.88
2016-11-03T01:48:50.531Z,5.88
2016-11-03T01:52:27.504Z,5.87
2016-11-03T01:56:04.804Z,5.95
2016-11-03T01:59:49.144Z,5.97
2016-11-03T02:08:01.112Z,5.93
2016-11-03T02:16:26.018Z,5.81
2016-11-03T02:20:23.448Z,5.88
2016-11-03T02:24:29.029Z,5.92
2016-11-03T02:28:06.844Z,5.91
2016-11-03T02:32:48.409Z,5.95
2016-11-03T02:41:12.842Z,6.01
2016-11-03T02:45:11.858Z,6.09
2016-11-03T02:48:55.167Z,6.16
2016-11-03T02:52:31.641Z,6.17
2016-11-03T02:56:37.364Z,6.05
2016-11-03T03:00:14.950Z,5.97
2016-11-03T03:03:53.750Z,5.87
2016-11-03T03:08:04.505Z,5.76
2016-11-03T03:12:10.445Z,5.62
2016-11-03T03:16:15.867Z,5.5
2016-11-03T03:19:53.607Z,5.41
2016-11-03T03:28:09.917Z,5.38
2016-11-03T03:31:46.324Z,5.39
2016-11-03T03:35:23.007Z,5.39
2016-11-03T03:38:59.615Z,5.39
2016-11-03T03:42:36.439Z,5.35
2016-11-03T03:46:13.557Z,5.32
2016-11-03T03:49:51.654Z,5.28
2016-11-03T03:53:27.912Z,5.24
2016-11-03T03:57:04.335Z,5.23
2016-11-03T04:00:41.281Z,5.26
2016-11-03T04:04:18.375Z,5.3
2016-11-03T04:07:55.588Z,5.34
2016-11-03T04:11:32.211Z,5.31
2016-11-03T04:15:09.801Z,5.31
2016-11-03T04:18:46.304Z,5.27
2016-11-03T04:22:23.359Z,5.26
2016-11-03T04:26:00.325Z,5.27
2016-11-03T04:29:37.377Z,5.31
2016-11-03T04:33:24.383Z,5.31
2016-11-03T04:37:23.433Z,5.27
2016-11-03T04:41:00.027Z,5.26
2016-11-03T04:44:37.153Z,5.25
2016-11-03T04:48:13.799Z,5.21
2016-11-03T04:51:51.713Z,5.13
2016-11-03T04:55:28.683Z,5.05
2016-11-03T04:59:09.198Z,4.91
2016-11-03T05:02:49.701Z,4.72
2016-11-03T05:06:27.266Z,4.6
2016-11-03T05:10:04.033Z,4.49
2016-11-03T05:13:41.399Z,4.43
2016-11-03T05:17:18.784Z,4.39
2016-11-03T05:21:18.500Z,4.35
2016-11-03T05:24:54.800Z,4.33
2016-11-03T05:28:31.939Z,4.28
2016-11-03T05:32:09.092Z,4.41
2016-11-03T05:35:46.465Z,4.51
2016-11-03T05:39:25.081Z,4.56
2016-11-03T05:43:05.293Z,4.61
2016-11-03T05:46:41.639Z,4.72
2016-11-03T05:50:19.141Z,4.85
2016-11-03T05:53:55.364Z,4.9
2016-11-03T06:02:06.160Z,4.87
2016-11-03T06:06:22.419Z,4.94
2016-11-03T06:09:54.092Z,5.03
2016-11-03T06:13:29.341Z,5.15
2016-11-03T06:17:15.723Z,5.26
2016-11-03T06:21:24.601Z,5.3
2016-11-03T06:25:53.856Z,5.26
2016-11-03T06:29:38.777Z,5.19
2016-11-03T06:33:15.007Z,5.21
2016-11-03T06:37:14.509Z,5.26
2016-11-03T06:40:59.891Z,5.26
2016-11-03T06:45:05.798Z,5.23
2016-11-03T06:48:42.181Z,5.16
2016-11-03T06:52:18.082Z,5.14
2016-11-03T06:55:54.282Z,5.15
2016-11-03T06:59:30.678Z,5.21
2016-11-03T07:03:07.433Z,5.24
2016-11-03T07:06:43.793Z,5.31
2016-11-03T07:10:20.956Z,5.37
2016-11-03T07:14:04.654Z,5.49
2016-11-03T07:17:42.222Z,5.66
2016-11-03T07:21:19.732Z,5.8
2016-11-03T07:24:56.686Z,5.92
2016-11-03T07:29:06.879Z,6.02
2016-11-03T07:37:20.227Z,6.4
2016-11-03T07:41:12.556Z,6.52
2016-11-03T07:45:59.357Z,6.82
2016-11-03T07:49:58.854Z,7.14
2016-11-03T07:53:35.270Z,7.35
2016-11-03T07:57:45.747Z,7.52
2016-11-03T08:01:22.082Z,7.71
2016-11-03T08:04:58.464Z,7.85
2016-11-03T08:08:34.541Z,7.99
2016-11-03T08:12:12.508Z,8.16
2016-11-03T08:15:48.497Z,8.44
2016-11-03T08:19:24.959Z,8.64
2016-11-03T08:23:35.231Z,8.73
2016-11-03T08:27:11.361Z,8.87
2016-11-03T08:30:48.125Z,9.03
2016-11-03T08:34:55.254Z,9.13
2016-11-03T08:38:32.651Z,9.17
2016-11-03T08:42:09.729Z,9.23
2016-11-03T08:45:46.073Z,9.35
2016-11-03T08:49:23.253Z,9.36
2016-11-03T08:53:00.321Z,9.29
2016-11-03T08:56:37.156Z,9.27
2016-11-03T09:00:14.202Z,9.36
2016-11-03T09:03:51.056Z,9.42
2016-11-03T09:07:28.217Z,9.47
2016-11-03T09:11:05.969Z,9.58
2016-11-03T09:14:42.107Z,9.66
2016-11-03T09:18:31.735Z,9.67
2016-11-03T09:22:27.082Z,9.79
2016-11-03T09:26:04.091Z,9.96
2016-11-03T09:29:41.701Z,10.06
2016-11-03T09:33:18.144Z,10.23
2016-11-03T09:36:55.761Z,10.31
2016-11-03T09:40:33.074Z,10.39
2016-11-03T09:44:09.852Z,10.56
2016-11-03T09:47:46.424Z,10.79
2016-11-03T09:51:23.146Z,10.9
2016-11-03T09:55:00.001Z,10.96
2016-11-03T09:58:36.951Z,11.09
2016-11-03T10:02:14.159Z,11.19
2016-11-03T10:05:51.446Z,11.19
2016-11-03T10:09:28.405Z,11.23
2016-11-03T10:13:05.142Z,11.29
2016-11-03T10:16:41.997Z,11.4
2016-11-03T10:20:19.490Z,11.52
2016-11-03T10:23:55.930Z,11.61
2016-11-03T10:27:33.517Z,11.66
2016-11-03T10:31:10.066Z,11.77
2016-11-03T10:34:47.063Z,11.89
2016-11-03T10:38:23.912Z,11.93
2016-11-03T10:42:01.495Z,12.01
2016-11-03T10:45:38.574Z,12.14
2016-11-03T10:49:15.041Z,12.34
2016-11-03T10:52:51.951Z,12.55
2016-11-03T10:56:29.639Z,12.62
2016-11-03T11:00:06.782Z,12.56
2016-11-03T11:03:43.043Z,12.58
2016-11-03T11:07:20.155Z,12.66
2016-11-03T11:10:57.413Z,12.72
2016-11-03T11:15:03.916Z,12.64
2016-11-03T11:19:14.311Z,12.74
2016-11-03T11:23:18.830Z,12.76
2016-11-03T11:26:35.865Z,12.89
2016-11-03T11:31:15.402Z,12.98
2016-11-03T11:34:47.639Z,13.04
2016-11-03T11:43:30.092Z,13.07
2016-11-03T11:47:07.004Z,13.15
2016-11-03T11:50:44.009Z,13.09
2016-11-03T11:54:20.853Z,13.02
2016-11-03T12:01:43.153Z,13.08
2016-11-03T12:05:19.616Z,13.06
2016-11-03T12:13:31.741Z,13.03
2016-11-03T12:17:07.742Z,12.99
2016-11-03T12:25:21.569Z,12.92
2016-11-03T12:28:58.086Z,12.89
2016-11-03T12:32:35.080Z,12.83
2016-11-03T12:36:13.242Z,12.86
2016-11-03T12:39:49.535Z,12.83
2016-11-03T12:43:26.431Z,12.85
2016-11-03T12:47:03.032Z,12.87
2016-11-03T12:50:40.064Z,12.96
2016-11-03T12:54:16.945Z,13.09
2016-11-03T12:57:54.195Z,13.2
2016-11-03T13:01:30.926Z,13.17
2016-11-03T13:05:08.287Z,13.08
2016-11-03T13:08:46.200Z,13
2016-11-03T13:12:22.092Z,12.97
2016-11-03T13:15:58.849Z,12.88
2016-11-03T13:19:36.126Z,12.75
2016-11-03T13:23:13.109Z,12.75
2016-11-03T13:26:50.436Z,12.68
2016-11-03T13:30:26.902Z,12.64
2016-11-03T13:34:03.975Z,12.75
2016-11-03T13:38:47.112Z,12.86
2016-11-03T13:42:51.751Z,12.91
2016-11-03T13:46:28.197Z,12.86
2016-11-03T13:50:05.012Z,12.86
2016-11-03T13:54:15.017Z,12.82
2016-11-03T13:57:53.584Z,12.88
2016-11-03T14:05:46.425Z,12.95
2016-11-03T14:09:43.339Z,12.96
2016-11-03T14:13:20.144Z,12.92
2016-11-03T14:16:57.083Z,12.89
2016-11-03T14:20:33.855Z,12.9
2016-11-03T14:24:10.997Z,13.02
2016-11-03T14:27:48.349Z,13.07
2016-11-03T14:31:25.449Z,12.99
2016-11-03T14:35:03.211Z,12.89
2016-11-03T14:38:39.716Z,12.72
2016-11-03T14:42:15.851Z,12.61
2016-11-03T14:45:53.113Z,12.53
2016-11-03T14:49:29.926Z,12.33
2016-11-03T14:53:07.523Z,12.18
2016-11-03T14:56:45.472Z,12.17
2016-11-03T15:01:27.637Z,12.17
2016-11-03T15:05:33.519Z,12.13
2016-11-03T15:13:58.764Z,12.19
2016-11-03T15:18:00.462Z,12.11
2016-11-03T15:21:39.028Z,12.05
2016-11-03T15:25:16.777Z,12.05
2016-11-03T15:28:53.346Z,12.02
2016-11-03T15:32:29.840Z,11.96
2016-11-03T15:36:06.430Z,11.86
2016-11-03T15:39:45.779Z,11.81
2016-11-03T15:43:21.945Z,11.73
2016-11-03T15:46:58.113Z,11.7
2016-11-03T15:50:39.013Z,11.64
2016-11-03T15:54:39.656Z,11.49
2016-11-03T15:58:54.658Z,11.3
2016-11-03T16:02:30.426Z,11.19
2016-11-03T16:06:06.825Z,11.07
2016-11-03T16:09:43.470Z,10.92
2016-11-03T16:13:19.649Z,10.81
2016-11-03T16:16:56.742Z,10.7
2016-11-03T16:21:01.352Z,10.65
2016-11-03T16:29:25.550Z,10.52
2016-11-03T16:37:37.989Z,10.37
2016-11-03T16:41:14.554Z,10.29
2016-11-03T16:44:50.571Z,10.25
2016-11-03T16:48:26.902Z,10.21
2016-11-03T16:52:30.677Z,10.14
2016-11-03T16:56:07.417Z,10.12
2016-11-03T17:00:18.275Z,10.09
2016-11-03T17:03:55.015Z,10.08
2016-11-03T17:07:31.178Z,10.06
2016-11-03T17:15:15.416Z,10.03
2016-11-03T17:18:52.337Z,10.03
2016-11-03T17:22:26.319Z,9.99
2016-11-03T17:26:03.536Z,9.9
2016-11-03T17:29:39.970Z,9.81
2016-11-03T17:33:16.865Z,9.7
2016-11-03T17:36:54.568Z,9.61
2016-11-03T17:40:31.332Z,9.52
2016-11-03T17:44:08.669Z,9.43
2016-11-03T17:47:45.551Z,9.31
2016-11-03T17:51:22.393Z,9.2
2016-11-03T17:59:13.082Z,8.95
2016-11-03T18:02:49.787Z,8.89
2016-11-03T18:06:56.038Z,8.83
2016-11-03T18:10:32.585Z,8.77
2016-11-03T18:18:45.320Z,8.7
2016-11-03T18:22:21.798Z,8.7
2016-11-03T18:26:06.879Z,8.69
2016-11-03T18:34:15.463Z,8.72
2016-11-03T18:37:51.782Z,8.72
2016-11-03T18:41:29.319Z,8.67
2016-11-03T18:45:05.960Z,8.56
2016-11-03T18:49:15.644Z,8.51
2016-11-03T18:52:53.371Z,8.55
2016-11-03T18:56:29.977Z,8.59
2016-11-03T19:00:06.817Z,8.51
2016-11-03T19:03:58.156Z,8.36
2016-11-03T19:07:42.391Z,8.27
2016-11-03T19:11:20.589Z,8.21
2016-11-03T19:14:57.982Z,8.18
2016-11-03T19:18:35.564Z,8.16
2016-11-03T19:22:40.717Z,8.11
2016-11-03T19:26:18.678Z,8.06
2016-11-03T19:29:55.783Z,7.95
2016-11-03T19:33:33.845Z,7.87
2016-11-03T19:37:11.110Z,7.8
2016-11-03T19:40:48.170Z,7.73
2016-11-03T19:44:57.544Z,7.69
2016-11-03T19:48:34.517Z,7.65
2016-11-03T19:52:10.934Z,7.64
2016-11-03T19:55:43.810Z,7.71
2016-11-03T19:59:20.747Z,7.69
2016-11-03T20:07:08.506Z,7.49
2016-11-03T20:20:08.068Z,7.27
2016-11-03T20:24:18.435Z,7.23
2016-11-03T20:28:05.454Z,7.18
2016-11-03T20:32:30.812Z,7.13
2016-11-03T20:36:09.410Z,7.08
2016-11-03T20:39:46.263Z,7
2016-11-03T20:43:23.490Z,6.95
2016-11-03T20:47:35.567Z,6.91
2016-11-03T20:51:11.646Z,6.86
2016-11-03T20:54:47.694Z,6.81
2016-11-03T20:58:24.438Z,6.83
2016-11-03T21:02:01.007Z,6.81
2016-11-03T21:05:37.991Z,6.74
2016-11-03T21:09:14.267Z,6.67
2016-11-03T21:12:53.192Z,6.64
2016-11-03T21:16:30.134Z,6.57
2016-11-03T21:20:34.722Z,6.54
2016-11-03T21:24:12.323Z,6.48
2016-11-03T21:28:23.237Z,6.41
2016-11-03T21:32:01.522Z,6.33
2016-11-03T21:35:33.813Z,6.32
2016-11-03T21:39:43.120Z,6.29
2016-11-03T21:43:19.992Z,6.22
2016-11-03T21:47:32.313Z,6.18
2016-11-03T21:51:09.418Z,6.18
2016-11-03T21:54:45.903Z,6.14
2016-11-03T21:59:20.899Z,6.14
2016-11-03T22:02:56.806Z,6.17
2016-11-03T22:06:33.890Z,6.24
2016-11-03T22:11:15.754Z,6.25
2016-11-03T22:14:50.724Z,6.22
2016-11-03T22:18:29.490Z,6.1
2016-11-03T22:22:41.974Z,5.98
2016-11-03T22:26:20.832Z,5.95
2016-11-03T22:38:36.134Z,5.9
2016-11-03T22:46:30.711Z,5.81
2016-11-03T22:50:07.574Z,5.79
2016-11-03T22:54:06.281Z,5.73
2016-11-03T22:57:44.956Z,5.7
2016-11-03T23:01:22.265Z,5.7
2016-11-03T23:04:59.046Z,5.69
2016-11-03T23:13:16.525Z,5.66
2016-11-03T23:17:53.395Z,5.71
2016-11-03T23:21:29.651Z,5.76
2016-11-03T23:25:06.858Z,5.73
2016-11-03T23:32:50.947Z,5.57
2016-11-03T23:36:37.159Z,5.45
2016-11-03T23:40:37.055Z,5.33
2016-11-03T23:44:47.380Z,5.25
2016-11-03T23:48:24.419Z,5.16
2016-11-03T23:52:01.081Z,5.14
2016-11-03T23:55:37.540Z,5.17
2016-11-03T23:59:14.116Z,5.14
